Flood From: 18-02-2018 10:00 Until: 19-02-2018 06:00 warning for: Flood Level: Yellow info button

Although rather usual in this region, locally or potentially dangerous phenomena are expected. (such as local winds, summer thunderstorms, rising streams or high waves) Be aware and pay attention to the latest weather updates, especially if you carry out activities exposed to weather or close to a stream or shoreline. 


Meteo18 Weather Cam more information Meteo18 Weather Cam


Thunder radar more information blitzortung!


Rain radar more information rain snow radar


Visit our other weather sites:

Template documentation
and downloads

And another site



Weather Underground History page Text

Daily Summary for November 4, 2017 Units:  Both    English   Metric
« Previous Day
Next Day »
Daily Weekly Monthly Yearly Custom
  High: Low: Average:
Temperature: TemperatureC °F /  -17.8 °C 7.3 °F /  -13.7 °C 12.8 °F /  -10.7 °C
Dew Point: DewpointC °F /  -17.8 °C 6.9 °F /  -13.9 °C 10.2 °F /  -12.1 °C
Humidity: Humidity % 69 % 84 %
Wind Speed: WindSpeedKMH mph /  0 km/h - 3.4 mph /  5.5 km/h
Wind Gust: WindSpeedGustKMH mph /  0 km/h - -
Wind:- - SW
Pressure: PressurehPa in /  0 hPa 1009.7 in /  34188.4 hPa -
Precipitation: 1.0 in /  25.4 mm    
Historical Graphs
 
 
Tabular Data for November 4, 2017
Time Temperature Dew Point Pressure Wind Wind Speed Wind Gust Humidity Rainfall Rate (Hourly)
TemperatureC °F /  -17.8 °C DewpointC °F /  -17.8 °C PressurehPa in /  0 hPa Calm     Humidity % HourlyPrecipMM in /  0 mm
00:02 9.7 °F /  -12.4 °C 8.5 °F /  -13.1 °C 1012.1 in /  34269.7 hPa WNW 1.6 mph /  2.6 km/h 3.2 mph /  5.1 km/h 92 % 0.0 in /  0 mm
00:07 9.4 °F /  -12.6 °C 8.2 °F /  -13.2 °C 1012.4 in /  34279.9 hPa WNW 1.6 mph /  2.6 km/h 3.2 mph /  5.1 km/h 92 % 0.0 in /  0 mm
00:12 9.3 °F /  -12.6 °C 8.2 °F /  -13.2 °C 1012.1 in /  34269.7 hPa Calm   1.6 mph /  2.6 km/h 93 % 0.0 in /  0 mm
00:17 9.4 °F /  -12.6 °C 8.5 °F /  -13.1 °C 1012.1 in /  34269.7 hPa Calm   3.2 mph /  5.1 km/h 94 % 0.0 in /  0 mm
00:22 9.8 °F /  -12.3 °C 9.0 °F /  -12.8 °C 1012.1 in /  34269.7 hPa WNW 3.2 mph /  5.1 km/h 3.2 mph /  5.1 km/h 95 % 0.0 in /  0 mm
00:27 9.6 °F /  -12.4 °C 8.5 °F /  -13.1 °C 1012.1 in /  34269.7 hPa Calm   3.2 mph /  5.1 km/h 93 % 0.0 in /  0 mm
00:32 9.5 °F /  -12.5 °C 8.4 °F /  -13.1 °C 1012.1 in /  34269.7 hPa Calm   3.2 mph /  5.1 km/h 93 % 0.0 in /  0 mm
00:37 9.7 °F /  -12.4 °C 8.8 °F /  -12.9 °C 1012.1 in /  34269.7 hPa Calm   3.2 mph /  5.1 km/h 94 % 0.0 in /  0 mm
00:42 9.8 °F /  -12.3 °C 8.9 °F /  -12.8 °C 1012.1 in /  34269.7 hPa Calm   1.6 mph /  2.6 km/h 94 % 0.0 in /  0 mm
00:47 9.7 °F /  -12.4 °C 8.8 °F /  -12.9 °C 1012.1 in /  34269.7 hPa Calm   1.6 mph /  2.6 km/h 94 % 0.0 in /  0 mm
00:52 9.8 °F /  -12.3 °C 8.9 °F /  -12.8 °C 1012.1 in /  34269.7 hPa Calm     94 % 0.0 in /  0 mm
00:57 9.8 °F /  -12.3 °C 8.9 °F /  -12.8 °C 1012.1 in /  34269.7 hPa Calm     94 % 0.0 in /  0 mm
01:02 9.7 °F /  -12.4 °C 8.6 °F /  -13 °C 1012.1 in /  34269.7 hPa Calm     93 % 0.0 in /  0 mm
01:07 9.6 °F /  -12.4 °C 8.8 °F /  -12.9 °C 1012.1 in /  34269.7 hPa Calm     95 % 0.0 in /  0 mm
01:12 9.6 °F /  -12.4 °C 8.7 °F /  -12.9 °C 1012.1 in /  34269.7 hPa SSW 1.6 mph /  2.6 km/h 1.6 mph /  2.6 km/h 94 % 0.0 in /  0 mm
01:17 9.8 °F /  -12.3 °C 8.9 °F /  -12.8 °C 1011.7 in /  34256.2 hPa Calm   3.2 mph /  5.1 km/h 94 % 0.0 in /  0 mm
01:22 9.8 °F /  -12.3 °C 8.9 °F /  -12.8 °C 1011.7 in /  34256.2 hPa Calm   3.2 mph /  5.1 km/h 94 % 0.0 in /  0 mm
01:27 9.8 °F /  -12.3 °C 8.7 °F /  -12.9 °C 1011.7 in /  34256.2 hPa Calm   3.2 mph /  5.1 km/h 93 % 0.0 in /  0 mm
01:32 9.8 °F /  -12.3 °C 8.7 °F /  -12.9 °C 1011.7 in /  34256.2 hPa Calm   1.6 mph /  2.6 km/h 93 % 0.0 in /  0 mm
01:37 9.7 °F /  -12.4 °C 8.6 °F /  -13 °C 1011.7 in /  34256.2 hPa Calm   1.6 mph /  2.6 km/h 93 % 0.0 in /  0 mm
01:42 9.6 °F /  -12.4 °C 8.5 °F /  -13.1 °C 1011.7 in /  34256.2 hPa Calm   1.6 mph /  2.6 km/h 93 % 0.0 in /  0 mm
01:47 9.5 °F /  -12.5 °C 8.4 °F /  -13.1 °C 1011.7 in /  34256.2 hPa Calm   1.6 mph /  2.6 km/h 93 % 0.0 in /  0 mm
01:52 9.4 °F /  -12.6 °C 8.3 °F /  -13.2 °C 1011.7 in /  34256.2 hPa Calm   1.6 mph /  2.6 km/h 93 % 0.0 in /  0 mm
01:57 9.4 °F /  -12.6 °C 8.5 °F /  -13.1 °C 1012.1 in /  34269.7 hPa Calm     94 % 0.0 in /  0 mm
02:02 9.2 °F /  -12.7 °C 8.1 °F /  -13.3 °C 1012.1 in /  34269.7 hPa Calm   1.6 mph /  2.6 km/h 93 % 0.0 in /  0 mm
02:07 9.1 °F /  -12.7 °C 8.2 °F /  -13.2 °C 1011.7 in /  34256.2 hPa Calm   1.6 mph /  2.6 km/h 94 % 0.0 in /  0 mm
02:12 9.1 °F /  -12.7 °C 8.2 °F /  -13.2 °C 1011.7 in /  34256.2 hPa Calm   1.6 mph /  2.6 km/h 94 % 0.0 in /  0 mm
02:17 9.1 °F /  -12.7 °C 8.2 °F /  -13.2 °C 1012.1 in /  34269.7 hPa Calm     94 % 0.0 in /  0 mm
02:22 9.2 °F /  -12.7 °C 8.4 °F /  -13.1 °C 1012.1 in /  34269.7 hPa Calm   1.6 mph /  2.6 km/h 95 % 0.0 in /  0 mm
02:27 9.1 °F /  -12.7 °C 8.3 °F /  -13.2 °C 1011.7 in /  34256.2 hPa Calm   1.6 mph /  2.6 km/h 95 % 0.0 in /  0 mm
02:37 9.0 °F /  -12.8 °C 8.2 °F /  -13.2 °C 1011.7 in /  34256.2 hPa Calm   1.6 mph /  2.6 km/h 95 % 0.0 in /  0 mm
02:47 8.7 °F /  -12.9 °C 7.8 °F /  -13.4 °C 1012.1 in /  34269.7 hPa Calm     94 % 0.0 in /  0 mm
02:52 8.7 °F /  -12.9 °C 7.8 °F /  -13.4 °C 1011.7 in /  34256.2 hPa Calm     94 % 0.0 in /  0 mm
08:12 7.3 °F /  -13.7 °C 6.9 °F /  -13.9 °C 1011.7 in /  34256.2 hPa Calm     97 % 0 in /  0 mm
08:17 7.3 °F /  -13.7 °C 6.9 °F /  -13.9 °C 1011.7 in /  34256.2 hPa Calm   1.6 mph /  2.6 km/h 97 % 0.0 in /  0 mm
08:22 7.7 °F /  -13.5 °C 7.3 °F /  -13.7 °C 1011.7 in /  34256.2 hPa Calm   1.6 mph /  2.6 km/h 97 % 0.0 in /  0 mm
08:27 7.8 °F /  -13.4 °C 7.4 °F /  -13.7 °C 1011.7 in /  34256.2 hPa Calm   1.6 mph /  2.6 km/h 97 % 0.0 in /  0 mm
08:32 7.8 °F /  -13.4 °C 7.4 °F /  -13.7 °C 1011.7 in /  34256.2 hPa Calm     97 % 0.0 in /  0 mm
08:37 7.9 °F /  -13.4 °C 7.5 °F /  -13.6 °C 1011.7 in /  34256.2 hPa Calm     97 % 0.0 in /  0 mm
08:42 8.0 °F /  -13.3 °C 7.6 °F /  -13.6 °C 1011.7 in /  34256.2 hPa Calm   1.6 mph /  2.6 km/h 97 % 0.0 in /  0 mm
08:47 8.2 °F /  -13.2 °C 7.8 °F /  -13.4 °C 1011.7 in /  34256.2 hPa SW 3.2 mph /  5.1 km/h 3.2 mph /  5.1 km/h 97 % 0.0 in /  0 mm
08:52 8.4 °F /  -13.1 °C 8.0 °F /  -13.3 °C 1011.7 in /  34256.2 hPa Calm   3.2 mph /  5.1 km/h 97 % 0.0 in /  0 mm
08:57 8.5 °F /  -13.1 °C 8.1 °F /  -13.3 °C 1011.7 in /  34256.2 hPa Calm   3.2 mph /  5.1 km/h 97 % 0.3 in /  7.62 mm
09:02 8.5 °F /  -13.1 °C 8.1 °F /  -13.3 °C 1011.7 in /  34256.2 hPa Calm   3.2 mph /  5.1 km/h 97 % 0.3 in /  7.62 mm
09:07 8.7 °F /  -12.9 °C 8.1 °F /  -13.3 °C 1011.7 in /  34256.2 hPa Calm   1.6 mph /  2.6 km/h 96 % 0.3 in /  7.62 mm
09:12 8.8 °F /  -12.9 °C 8.2 °F /  -13.2 °C 1011.7 in /  34256.2 hPa Calm   3.2 mph /  5.1 km/h 96 % 0.3 in /  7.62 mm
09:17 9.0 °F /  -12.8 °C 8.4 °F /  -13.1 °C 1011.7 in /  34256.2 hPa Calm   3.2 mph /  5.1 km/h 96 % 0.3 in /  7.62 mm
09:22 9.2 °F /  -12.7 °C 8.6 °F /  -13 °C 1011.7 in /  34256.2 hPa Calm   3.2 mph /  5.1 km/h 96 % 0.3 in /  7.62 mm
09:32 9.6 °F /  -12.4 °C 8.8 °F /  -12.9 °C 1012.1 in /  34269.7 hPa West 1.6 mph /  2.6 km/h 3.2 mph /  5.1 km/h 95 % 0.3 in /  7.62 mm
09:37 9.8 °F /  -12.3 °C 9.0 °F /  -12.8 °C 1012.1 in /  34269.7 hPa Calm   3.2 mph /  5.1 km/h 95 % 0.3 in /  7.62 mm
09:42 10.1 °F /  -12.2 °C 9.2 °F /  -12.7 °C 1012.1 in /  34269.7 hPa Calm   3.2 mph /  5.1 km/h 94 % 0.3 in /  7.62 mm
09:47 10.4 °F /  -12 °C 9.5 °F /  -12.5 °C 1012.1 in /  34269.7 hPa Calm   1.6 mph /  2.6 km/h 94 % 0.3 in /  7.62 mm
09:52 10.8 °F /  -11.8 °C 9.6 °F /  -12.4 °C 1012.1 in /  34269.7 hPa SW 3.2 mph /  5.1 km/h 3.2 mph /  5.1 km/h 92 % 0.3 in /  7.62 mm
09:57 10.9 °F /  -11.7 °C 9.3 °F /  -12.6 °C 1011.7 in /  34256.2 hPa SW 1.6 mph /  2.6 km/h 4.8 mph /  7.7 km/h 90 % 0.0 in /  0 mm
10:02 11.1 °F /  -11.6 °C 9.5 °F /  -12.5 °C 1011.7 in /  34256.2 hPa SSW 1.6 mph /  2.6 km/h 4.8 mph /  7.7 km/h 90 % 0.0 in /  0 mm
10:07 11.3 °F /  -11.5 °C 9.6 °F /  -12.4 °C 1011.7 in /  34256.2 hPa SSW 3.2 mph /  5.1 km/h 4.8 mph /  7.7 km/h 89 % 0.0 in /  0 mm
10:12 11.6 °F /  -11.3 °C 9.8 °F /  -12.3 °C 1012.1 in /  34269.7 hPa Calm   4.8 mph /  7.7 km/h 89 % 0.0 in /  0 mm
10:17 12.0 °F /  -11.1 °C 10.1 °F /  -12.2 °C 1011.7 in /  34256.2 hPa SSE 3.2 mph /  5.1 km/h 4.8 mph /  7.7 km/h 88 % 0.0 in /  0 mm
10:22 12.4 °F /  -10.9 °C 10.5 °F /  -11.9 °C 1011.7 in /  34256.2 hPa SE 1.6 mph /  2.6 km/h 4.8 mph /  7.7 km/h 88 % 0.0 in /  0 mm
10:27 12.6 °F /  -10.8 °C 10.1 °F /  -12.2 °C 1011.7 in /  34256.2 hPa SSW 4.8 mph /  7.7 km/h 8.0 mph /  12.9 km/h 85 % 0.0 in /  0 mm
10:32 12.7 °F /  -10.7 °C 10.2 °F /  -12.1 °C 1011.7 in /  34256.2 hPa SSW 3.2 mph /  5.1 km/h 8.0 mph /  12.9 km/h 85 % 0.0 in /  0 mm
10:37 12.9 °F /  -10.6 °C 10.4 °F /  -12 °C 1012.1 in /  34269.7 hPa SW 1.6 mph /  2.6 km/h 8.0 mph /  12.9 km/h 85 % 0.0 in /  0 mm
10:42 13.3 °F /  -10.4 °C 10.7 °F /  -11.8 °C 1011.7 in /  34256.2 hPa SSW 1.6 mph /  2.6 km/h 8.0 mph /  12.9 km/h 84 % 0.0 in /  0 mm
10:47 13.6 °F /  -10.2 °C 10.8 °F /  -11.8 °C 1012.1 in /  34269.7 hPa SSW 6.4 mph /  10.3 km/h 6.4 mph /  10.3 km/h 83 % 0.0 in /  0 mm
10:52 13.7 °F /  -10.2 °C 10.7 °F /  -11.8 °C 1012.1 in /  34269.7 hPa SW 4.8 mph /  7.7 km/h 8.0 mph /  12.9 km/h 82 % 0.0 in /  0 mm
10:57 13.8 °F /  -10.1 °C 10.6 °F /  -11.9 °C 1012.1 in /  34269.7 hPa SW 8.0 mph /  12.9 km/h 8.0 mph /  12.9 km/h 81 % 0.0 in /  0 mm
11:02 14.1 °F /  -9.9 °C 10.9 °F /  -11.7 °C 1012.1 in /  34269.7 hPa SW 1.6 mph /  2.6 km/h 8.0 mph /  12.9 km/h 81 % 0.0 in /  0 mm
11:07 14.3 °F /  -9.8 °C 11.1 °F /  -11.6 °C 1012.1 in /  34269.7 hPa SW 9.7 mph /  15.6 km/h 9.7 mph /  15.6 km/h 81 % 0.0 in /  0 mm
11:12 14.7 °F /  -9.6 °C 10.5 °F /  -11.9 °C 1012.1 in /  34269.7 hPa WSW 16.1 mph /  25.9 km/h 16.1 mph /  25.9 km/h 76 % 0.0 in /  0 mm
11:17 14.8 °F /  -9.6 °C 10.6 °F /  -11.9 °C 1011.7 in /  34256.2 hPa SW 9.7 mph /  15.6 km/h 20.9 mph /  33.6 km/h 76 % 0.0 in /  0 mm
11:22 15.1 °F /  -9.4 °C 10.7 °F /  -11.8 °C 1011.7 in /  34256.2 hPa SW 6.4 mph /  10.3 km/h 20.9 mph /  33.6 km/h 75 % 0.0 in /  0 mm
11:27 15.3 °F /  -9.3 °C 10.9 °F /  -11.7 °C 1011.7 in /  34256.2 hPa WSW 14.5 mph /  23.3 km/h 20.9 mph /  33.6 km/h 75 % 0.0 in /  0 mm
11:32 15.3 °F /  -9.3 °C 10.5 °F /  -11.9 °C 1011.7 in /  34256.2 hPa WSW 12.9 mph /  20.8 km/h 16.1 mph /  25.9 km/h 73 % 0.0 in /  0 mm
11:37 15.3 °F /  -9.3 °C 10.5 °F /  -11.9 °C 1011.7 in /  34256.2 hPa SW 14.5 mph /  23.3 km/h 19.3 mph /  31.1 km/h 73 % 0.0 in /  0 mm
11:42 15.4 °F /  -9.2 °C 10.6 °F /  -11.9 °C 1011.7 in /  34256.2 hPa WSW 14.5 mph /  23.3 km/h 22.5 mph /  36.2 km/h 73 % 0.0 in /  0 mm
11:47 15.4 °F /  -9.2 °C 10.6 °F /  -11.9 °C 1011.7 in /  34256.2 hPa SW 16.1 mph /  25.9 km/h 22.5 mph /  36.2 km/h 73 % 0.0 in /  0 mm
11:52 15.5 °F /  -9.2 °C 10.9 °F /  -11.7 °C 1011.7 in /  34256.2 hPa SW 9.7 mph /  15.6 km/h 22.5 mph /  36.2 km/h 74 % 0.0 in /  0 mm
11:57 15.6 °F /  -9.1 °C 11.0 °F /  -11.7 °C 1011.7 in /  34256.2 hPa South 11.3 mph /  18.2 km/h 25.7 mph /  41.4 km/h 74 % 0.0 in /  0 mm
12:07 15.7 °F /  -9.1 °C 11.1 °F /  -11.6 °C 1011.4 in /  34246 hPa WSW 11.3 mph /  18.2 km/h 25.7 mph /  41.4 km/h 74 % 0.0 in /  0 mm
12:12 15.7 °F /  -9.1 °C 11.1 °F /  -11.6 °C 1011.4 in /  34246 hPa West 9.7 mph /  15.6 km/h 20.9 mph /  33.6 km/h 74 % 0.0 in /  0 mm
12:17 15.8 °F /  -9 °C 11.2 °F /  -11.6 °C 1011.4 in /  34246 hPa SSW 4.8 mph /  7.7 km/h 22.5 mph /  36.2 km/h 74 % 0.0 in /  0 mm
12:22 15.9 °F /  -8.9 °C 11.5 °F /  -11.4 °C 1011.4 in /  34246 hPa SW 8.0 mph /  12.9 km/h 22.5 mph /  36.2 km/h 75 % 0.0 in /  0 mm
12:27 16.1 °F /  -8.8 °C 11.5 °F /  -11.4 °C 1011.4 in /  34246 hPa SW 17.7 mph /  28.5 km/h 19.3 mph /  31.1 km/h 74 % 0.0 in /  0 mm
12:32 16.2 °F /  -8.8 °C 11.6 °F /  -11.3 °C 1011.4 in /  34246 hPa WSW 12.9 mph /  20.8 km/h 20.9 mph /  33.6 km/h 74 % 0.0 in /  0 mm
12:37 16.3 °F /  -8.7 °C 11.7 °F /  -11.3 °C 1011.1 in /  34235.8 hPa SW 9.7 mph /  15.6 km/h 22.5 mph /  36.2 km/h 74 % 0.0 in /  0 mm
12:42 16.3 °F /  -8.7 °C 11.7 °F /  -11.3 °C 1011.1 in /  34235.8 hPa WSW 11.3 mph /  18.2 km/h 22.5 mph /  36.2 km/h 74 % 0.0 in /  0 mm
12:47 16.2 °F /  -8.8 °C 11.6 °F /  -11.3 °C 1011.1 in /  34235.8 hPa WSW 17.7 mph /  28.5 km/h 17.7 mph /  28.5 km/h 74 % 0.0 in /  0 mm
12:52 16.2 °F /  -8.8 °C 11.6 °F /  -11.3 °C 1011.1 in /  34235.8 hPa WSW 17.7 mph /  28.5 km/h 20.9 mph /  33.6 km/h 74 % 0.0 in /  0 mm
12:57 16.2 °F /  -8.8 °C 11.6 °F /  -11.3 °C 1011.1 in /  34235.8 hPa West 9.7 mph /  15.6 km/h 20.9 mph /  33.6 km/h 74 % 0.0 in /  0 mm
13:02 16.1 °F /  -8.8 °C 11.5 °F /  -11.4 °C 1011.1 in /  34235.8 hPa West 9.7 mph /  15.6 km/h 20.9 mph /  33.6 km/h 74 % 0.0 in /  0 mm
13:12 16.1 °F /  -8.8 °C 11.7 °F /  -11.3 °C 1011.1 in /  34235.8 hPa WSW 11.3 mph /  18.2 km/h 19.3 mph /  31.1 km/h 75 % 0.0 in /  0 mm
13:17 15.9 °F /  -8.9 °C 11.5 °F /  -11.4 °C 1011.1 in /  34235.8 hPa SSW 8.0 mph /  12.9 km/h 19.3 mph /  31.1 km/h 75 % 0.0 in /  0 mm
13:22 15.9 °F /  -8.9 °C 11.7 °F /  -11.3 °C 1011.1 in /  34235.8 hPa SSW 8.0 mph /  12.9 km/h 19.3 mph /  31.1 km/h 76 % 0.0 in /  0 mm
13:27 15.9 °F /  -8.9 °C 11.7 °F /  -11.3 °C 1011.1 in /  34235.8 hPa West 8.0 mph /  12.9 km/h 19.3 mph /  31.1 km/h 76 % 0.0 in /  0 mm
13:32 16.0 °F /  -8.9 °C 11.8 °F /  -11.2 °C 1010.7 in /  34222.3 hPa SSW 9.7 mph /  15.6 km/h 19.3 mph /  31.1 km/h 76 % 0.0 in /  0 mm
13:37 16.2 °F /  -8.8 °C 11.8 °F /  -11.2 °C 1010.7 in /  34222.3 hPa SW 9.7 mph /  15.6 km/h 17.7 mph /  28.5 km/h 75 % 0.0 in /  0 mm
13:42 16.3 °F /  -8.7 °C 11.7 °F /  -11.3 °C 1010.7 in /  34222.3 hPa WSW 9.7 mph /  15.6 km/h 17.7 mph /  28.5 km/h 74 % 0.0 in /  0 mm
13:47 16.6 °F /  -8.6 °C 11.7 °F /  -11.3 °C 1010.7 in /  34222.3 hPa SW 8.0 mph /  12.9 km/h 24.1 mph /  38.8 km/h 73 % 0.0 in /  0 mm
13:52 16.8 °F /  -8.4 °C 11.9 °F /  -11.2 °C 1010.7 in /  34222.3 hPa SW 9.7 mph /  15.6 km/h 24.1 mph /  38.8 km/h 73 % 0.0 in /  0 mm
13:57 16.9 °F /  -8.4 °C 11.6 °F /  -11.3 °C 1010.7 in /  34222.3 hPa WNW 6.4 mph /  10.3 km/h 24.1 mph /  38.8 km/h 71 % 0.0 in /  0 mm
14:02 17.1 °F /  -8.3 °C 11.6 °F /  -11.3 °C 1010.4 in /  34212.1 hPa West 12.9 mph /  20.8 km/h 20.9 mph /  33.6 km/h 70 % 0.0 in /  0 mm
14:07 17.1 °F /  -8.3 °C 11.6 °F /  -11.3 °C 1010.4 in /  34212.1 hPa West 9.7 mph /  15.6 km/h 20.9 mph /  33.6 km/h 70 % 0.0 in /  0 mm
14:12 17.0 °F /  -8.3 °C 11.7 °F /  -11.3 °C 1010.4 in /  34212.1 hPa WSW 8.0 mph /  12.9 km/h 24.1 mph /  38.8 km/h 71 % 0.0 in /  0 mm
14:17 16.9 °F /  -8.4 °C 11.6 °F /  -11.3 °C 1010.4 in /  34212.1 hPa SSW 8.0 mph /  12.9 km/h 24.1 mph /  38.8 km/h 71 % 0.0 in /  0 mm
14:22 17.0 °F /  -8.3 °C 11.7 °F /  -11.3 °C 1010.4 in /  34212.1 hPa SW 12.9 mph /  20.8 km/h 19.3 mph /  31.1 km/h 71 % 0.0 in /  0 mm
14:27 16.9 °F /  -8.4 °C 11.8 °F /  -11.2 °C 1010.4 in /  34212.1 hPa SW 16.1 mph /  25.9 km/h 16.1 mph /  25.9 km/h 72 % 0.0 in /  0 mm
14:32 16.9 °F /  -8.4 °C 11.6 °F /  -11.3 °C 1010.0 in /  34198.6 hPa SW 11.3 mph /  18.2 km/h 17.7 mph /  28.5 km/h 71 % 0.0 in /  0 mm
14:37 17.1 °F /  -8.3 °C 11.8 °F /  -11.2 °C 1010.0 in /  34198.6 hPa SW 14.5 mph /  23.3 km/h 17.7 mph /  28.5 km/h 71 % 0.0 in /  0 mm
14:42 17.0 °F /  -8.3 °C 11.7 °F /  -11.3 °C 1010.0 in /  34198.6 hPa SW 4.8 mph /  7.7 km/h 17.7 mph /  28.5 km/h 71 % 0.0 in /  0 mm
14:47 17.1 °F /  -8.3 °C 12.0 °F /  -11.1 °C 1010.0 in /  34198.6 hPa WSW 4.8 mph /  7.7 km/h 17.7 mph /  28.5 km/h 72 % 0.0 in /  0 mm
14:52 17.2 °F /  -8.2 °C 11.7 °F /  -11.3 °C 1010.0 in /  34198.6 hPa SW 16.1 mph /  25.9 km/h 16.1 mph /  25.9 km/h 70 % 0.0 in /  0 mm
14:57 17.2 °F /  -8.2 °C 11.7 °F /  -11.3 °C 1010.0 in /  34198.6 hPa SSW 4.8 mph /  7.7 km/h 17.7 mph /  28.5 km/h 70 % 0.0 in /  0 mm
15:02 17.3 °F /  -8.2 °C 11.8 °F /  -11.2 °C 1010.0 in /  34198.6 hPa WSW 11.3 mph /  18.2 km/h 19.3 mph /  31.1 km/h 70 % 0.0 in /  0 mm
15:07 17.3 °F /  -8.2 °C 11.8 °F /  -11.2 °C 1010.0 in /  34198.6 hPa WSW 8.0 mph /  12.9 km/h 19.3 mph /  31.1 km/h 70 % 0.0 in /  0 mm
15:12 17.3 °F /  -8.2 °C 11.6 °F /  -11.3 °C 1010.0 in /  34198.6 hPa WSW 9.7 mph /  15.6 km/h 19.3 mph /  31.1 km/h 69 % 0.0 in /  0 mm
15:17 17.3 °F /  -8.2 °C 11.6 °F /  -11.3 °C 1010.0 in /  34198.6 hPa WSW 11.3 mph /  18.2 km/h 17.7 mph /  28.5 km/h 69 % 0.0 in /  0 mm
15:22 17.2 °F /  -8.2 °C 11.5 °F /  -11.4 °C 1010.0 in /  34198.6 hPa SW 12.9 mph /  20.8 km/h 17.7 mph /  28.5 km/h 69 % 0.0 in /  0 mm
15:32 17.2 °F /  -8.2 °C 11.7 °F /  -11.3 °C 1010.0 in /  34198.6 hPa SW 9.7 mph /  15.6 km/h 19.3 mph /  31.1 km/h 70 % 0.0 in /  0 mm
15:42 17.2 °F /  -8.2 °C 11.7 °F /  -11.3 °C 1010.0 in /  34198.6 hPa West 8.0 mph /  12.9 km/h 19.3 mph /  31.1 km/h 70 % 0.0 in /  0 mm
15:52 17.1 °F /  -8.3 °C 11.6 °F /  -11.3 °C 1010.0 in /  34198.6 hPa SW 9.7 mph /  15.6 km/h 17.7 mph /  28.5 km/h 70 % 0.0 in /  0 mm
15:57 17.1 °F /  -8.3 °C 11.8 °F /  -11.2 °C 1010.0 in /  34198.6 hPa SW 6.4 mph /  10.3 km/h 14.5 mph /  23.3 km/h 71 % 0.0 in /  0 mm
16:02 16.9 °F /  -8.4 °C 11.6 °F /  -11.3 °C 1010.0 in /  34198.6 hPa West 3.2 mph /  5.1 km/h 14.5 mph /  23.3 km/h 71 % 0.0 in /  0 mm
16:12 16.7 °F /  -8.5 °C 11.6 °F /  -11.3 °C 1009.7 in /  34188.4 hPa WSW 8.0 mph /  12.9 km/h 12.9 mph /  20.8 km/h 72 % 0.0 in /  0 mm
16:17 16.6 °F /  -8.6 °C 11.7 °F /  -11.3 °C 1009.7 in /  34188.4 hPa SW 4.8 mph /  7.7 km/h 12.9 mph /  20.8 km/h 73 % 0.0 in /  0 mm
16:22 16.5 °F /  -8.6 °C 11.6 °F /  -11.3 °C 1009.7 in /  34188.4 hPa SSW 3.2 mph /  5.1 km/h 11.3 mph /  18.2 km/h 73 % 0.0 in /  0 mm
16:27 16.4 °F /  -8.7 °C 11.5 °F /  -11.4 °C 1009.7 in /  34188.4 hPa SW 6.4 mph /  10.3 km/h 11.3 mph /  18.2 km/h 73 % 0.0 in /  0 mm
16:32 16.3 °F /  -8.7 °C 11.5 °F /  -11.4 °C 1009.7 in /  34188.4 hPa Calm   11.3 mph /  18.2 km/h 73 % 0.0 in /  0 mm
16:37 16.2 °F /  -8.8 °C 11.6 °F /  -11.3 °C 1009.7 in /  34188.4 hPa SW 4.8 mph /  7.7 km/h 9.7 mph /  15.6 km/h 74 % 0.0 in /  0 mm
16:42 16.2 °F /  -8.8 °C 11.6 °F /  -11.3 °C 1010.0 in /  34198.6 hPa SW 1.6 mph /  2.6 km/h 9.7 mph /  15.6 km/h 74 % 0.0 in /  0 mm
16:47 16.1 °F /  -8.8 °C 11.5 °F /  -11.4 °C 1010.0 in /  34198.6 hPa WSW 6.4 mph /  10.3 km/h 8.0 mph /  12.9 km/h 74 % 0.0 in /  0 mm
16:52 15.9 °F /  -8.9 °C 11.5 °F /  -11.4 °C 1010.0 in /  34198.6 hPa SW 1.6 mph /  2.6 km/h 8.0 mph /  12.9 km/h 75 % 0.0 in /  0 mm
16:57 15.8 °F /  -9 °C 11.4 °F /  -11.4 °C 1010.0 in /  34198.6 hPa SW 1.6 mph /  2.6 km/h 8.0 mph /  12.9 km/h 75 % 0.0 in /  0 mm
17:02 15.6 °F /  -9.1 °C 11.4 °F /  -11.4 °C 1010.0 in /  34198.6 hPa SSW 1.6 mph /  2.6 km/h 6.4 mph /  10.3 km/h 76 % 0.0 in /  0 mm
17:07 15.3 °F /  -9.3 °C 11.3 °F /  -11.5 °C 1010.0 in /  34198.6 hPa Calm   4.8 mph /  7.7 km/h 77 % 0.0 in /  0 mm
17:12 15.2 °F /  -9.3 °C 11.2 °F /  -11.6 °C 1010.0 in /  34198.6 hPa Calm   3.2 mph /  5.1 km/h 77 % 0.0 in /  0 mm
17:17 15.1 °F /  -9.4 °C 11.3 °F /  -11.5 °C 1010.0 in /  34198.6 hPa Calm   1.6 mph /  2.6 km/h 78 % 0.0 in /  0 mm
17:22 15.0 °F /  -9.4 °C 11.2 °F /  -11.6 °C 1010.0 in /  34198.6 hPa SSW 1.6 mph /  2.6 km/h 1.6 mph /  2.6 km/h 78 % 0.0 in /  0 mm
17:32 14.8 °F /  -9.6 °C 11.2 °F /  -11.6 °C 1010.0 in /  34198.6 hPa SW 1.6 mph /  2.6 km/h 3.2 mph /  5.1 km/h 79 % 0.0 in /  0 mm
17:37 14.9 °F /  -9.5 °C 11.3 °F /  -11.5 °C 1010.0 in /  34198.6 hPa SSW 1.6 mph /  2.6 km/h 4.8 mph /  7.7 km/h 79 % 0.0 in /  0 mm
17:42 15.1 °F /  -9.4 °C 11.5 °F /  -11.4 °C 1010.0 in /  34198.6 hPa Calm   4.8 mph /  7.7 km/h 79 % 0.0 in /  0 mm
17:47 15.1 °F /  -9.4 °C 11.5 °F /  -11.4 °C 1010.0 in /  34198.6 hPa Calm   4.8 mph /  7.7 km/h 79 % 0.0 in /  0 mm
17:57 15.1 °F /  -9.4 °C 11.7 °F /  -11.3 °C 1010.0 in /  34198.6 hPa WSW 6.4 mph /  10.3 km/h 6.4 mph /  10.3 km/h 80 % 0.0 in /  0 mm
18:02 15.0 °F /  -9.4 °C 11.6 °F /  -11.3 °C 1010.0 in /  34198.6 hPa SSW 1.6 mph /  2.6 km/h 6.4 mph /  10.3 km/h 80 % 0.0 in /  0 mm
18:07 14.8 °F /  -9.6 °C 11.4 °F /  -11.4 °C 1010.0 in /  34198.6 hPa SSW 3.2 mph /  5.1 km/h 6.4 mph /  10.3 km/h 80 % 0.0 in /  0 mm
18:12 14.6 °F /  -9.7 °C 11.4 °F /  -11.4 °C 1010.0 in /  34198.6 hPa South 4.8 mph /  7.7 km/h 6.4 mph /  10.3 km/h 81 % 0.0 in /  0 mm
18:17 14.6 °F /  -9.7 °C 11.4 °F /  -11.4 °C 1010.0 in /  34198.6 hPa SW 3.2 mph /  5.1 km/h 6.4 mph /  10.3 km/h 81 % 0.0 in /  0 mm
18:22 14.4 °F /  -9.8 °C 11.2 °F /  -11.6 °C 1010.0 in /  34198.6 hPa SSW 1.6 mph /  2.6 km/h 6.4 mph /  10.3 km/h 81 % 0.0 in /  0 mm
18:27 14.3 °F /  -9.8 °C 11.3 °F /  -11.5 °C 1010.0 in /  34198.6 hPa SSW 1.6 mph /  2.6 km/h 6.4 mph /  10.3 km/h 82 % 0.0 in /  0 mm
18:32 14.4 °F /  -9.8 °C 11.5 °F /  -11.4 °C 1010.0 in /  34198.6 hPa WSW 1.6 mph /  2.6 km/h 6.4 mph /  10.3 km/h 83 % 0.0 in /  0 mm
18:37 14.4 °F /  -9.8 °C 11.4 °F /  -11.4 °C 1010.0 in /  34198.6 hPa WNW 1.6 mph /  2.6 km/h 4.8 mph /  7.7 km/h 82 % 0.0 in /  0 mm
18:42 14.4 °F /  -9.8 °C 11.5 °F /  -11.4 °C 1010.0 in /  34198.6 hPa West 3.2 mph /  5.1 km/h 4.8 mph /  7.7 km/h 83 % 0.0 in /  0 mm
18:47 14.3 °F /  -9.8 °C 11.5 °F /  -11.4 °C 1010.4 in /  34212.1 hPa West 1.6 mph /  2.6 km/h 4.8 mph /  7.7 km/h 83 % 0.0 in /  0 mm
18:52 14.3 °F /  -9.8 °C 11.5 °F /  -11.4 °C 1010.4 in /  34212.1 hPa WSW 1.6 mph /  2.6 km/h 4.8 mph /  7.7 km/h 83 % 0.0 in /  0 mm
18:57 14.2 °F /  -9.9 °C 11.4 °F /  -11.4 °C 1010.4 in /  34212.1 hPa Calm   4.8 mph /  7.7 km/h 83 % 0.0 in /  0 mm
19:02 14.1 °F /  -9.9 °C 11.4 °F /  -11.4 °C 1010.4 in /  34212.1 hPa Calm   1.6 mph /  2.6 km/h 84 % 0.0 in /  0 mm
19:07 14.1 °F /  -9.9 °C 11.3 °F /  -11.5 °C 1010.4 in /  34212.1 hPa North 1.6 mph /  2.6 km/h 1.6 mph /  2.6 km/h 83 % 0.0 in /  0 mm
19:12 14.1 °F /  -9.9 °C 11.4 °F /  -11.4 °C 1010.7 in /  34222.3 hPa NNW 1.6 mph /  2.6 km/h 3.2 mph /  5.1 km/h 84 % 0.0 in /  0 mm
19:17 13.9 °F /  -10.1 °C 11.2 °F /  -11.6 °C 1010.7 in /  34222.3 hPa NW 4.8 mph /  7.7 km/h 8.0 mph /  12.9 km/h 84 % 0.0 in /  0 mm
19:22 13.9 °F /  -10.1 °C 11.2 °F /  -11.6 °C 1010.7 in /  34222.3 hPa Calm   8.0 mph /  12.9 km/h 84 % 0.0 in /  0 mm
19:27 13.8 °F /  -10.1 °C 11.1 °F /  -11.6 °C 1010.7 in /  34222.3 hPa North 1.6 mph /  2.6 km/h 8.0 mph /  12.9 km/h 84 % 0.0 in /  0 mm
19:32 13.8 °F /  -10.1 °C 11.1 °F /  -11.6 °C 1010.7 in /  34222.3 hPa Calm   6.4 mph /  10.3 km/h 84 % 0.0 in /  0 mm
19:37 13.8 °F /  -10.1 °C 11.1 °F /  -11.6 °C 1010.7 in /  34222.3 hPa Calm   3.2 mph /  5.1 km/h 84 % 0.0 in /  0 mm
19:42 13.6 °F /  -10.2 °C 10.9 °F /  -11.7 °C 1010.7 in /  34222.3 hPa Calm   3.2 mph /  5.1 km/h 84 % 0.0 in /  0 mm
19:47 13.4 °F /  -10.3 °C 10.9 °F /  -11.7 °C 1010.7 in /  34222.3 hPa Calm   3.2 mph /  5.1 km/h 85 % 0.0 in /  0 mm
19:52 13.3 °F /  -10.4 °C 10.8 °F /  -11.8 °C 1010.7 in /  34222.3 hPa Calm   1.6 mph /  2.6 km/h 85 % 0.0 in /  0 mm
19:57 13.3 °F /  -10.4 °C 11.0 °F /  -11.7 °C 1010.7 in /  34222.3 hPa Calm   1.6 mph /  2.6 km/h 86 % 0.0 in /  0 mm
20:02 13.2 °F /  -10.4 °C 10.9 °F /  -11.7 °C 1010.4 in /  34212.1 hPa Calm   3.2 mph /  5.1 km/h 86 % 0.0 in /  0 mm
20:07 13.2 °F /  -10.4 °C 10.9 °F /  -11.7 °C 1010.4 in /  34212.1 hPa Calm   3.2 mph /  5.1 km/h 86 % 0.0 in /  0 mm
20:12 12.9 °F /  -10.6 °C 10.4 °F /  -12 °C 1010.4 in /  34212.1 hPa Calm     85 % 0.0 in /  0 mm
20:17 12.6 °F /  -10.8 °C 10.5 °F /  -11.9 °C 1010.4 in /  34212.1 hPa Calm   1.6 mph /  2.6 km/h 87 % 0.0 in /  0 mm
20:22 12.6 °F /  -10.8 °C 10.7 °F /  -11.8 °C 1010.4 in /  34212.1 hPa Calm   1.6 mph /  2.6 km/h 88 % 0.0 in /  0 mm
20:27 12.6 °F /  -10.8 °C 10.7 °F /  -11.8 °C 1010.0 in /  34198.6 hPa Calm   1.6 mph /  2.6 km/h 88 % 0.0 in /  0 mm
20:32 12.6 °F /  -10.8 °C 10.7 °F /  -11.8 °C 1010.0 in /  34198.6 hPa Calm     88 % 0.0 in /  0 mm
20:37 12.4 °F /  -10.9 °C 10.5 °F /  -11.9 °C 1010.4 in /  34212.1 hPa WNW 1.6 mph /  2.6 km/h 3.2 mph /  5.1 km/h 88 % 0.0 in /  0 mm
20:42 12.1 °F /  -11.1 °C 10.3 °F /  -12.1 °C 1010.4 in /  34212.1 hPa Calm   3.2 mph /  5.1 km/h 89 % 0.0 in /  0 mm
20:47 11.9 °F /  -11.2 °C 10.1 °F /  -12.2 °C 1010.4 in /  34212.1 hPa North 3.2 mph /  5.1 km/h 3.2 mph /  5.1 km/h 89 % 0.0 in /  0 mm
20:52 11.8 °F /  -11.2 °C 10.2 °F /  -12.1 °C 1010.4 in /  34212.1 hPa Calm   3.2 mph /  5.1 km/h 90 % 0.0 in /  0 mm
20:57 11.6 °F /  -11.3 °C 10.0 °F /  -12.2 °C 1010.4 in /  34212.1 hPa NNE 1.6 mph /  2.6 km/h 3.2 mph /  5.1 km/h 90 % 0.0 in /  0 mm
21:02 11.7 °F /  -11.3 °C 10.3 °F /  -12.1 °C 1010.4 in /  34212.1 hPa Calm   3.2 mph /  5.1 km/h 91 % 0.0 in /  0 mm
21:07 11.8 °F /  -11.2 °C 10.4 °F /  -12 °C 1010.4 in /  34212.1 hPa Calm   3.2 mph /  5.1 km/h 91 % 0.0 in /  0 mm
21:12 11.8 °F /  -11.2 °C 10.2 °F /  -12.1 °C 1010.4 in /  34212.1 hPa Calm   3.2 mph /  5.1 km/h 90 % 0.0 in /  0 mm
21:17 11.5 °F /  -11.4 °C 9.9 °F /  -12.3 °C 1010.4 in /  34212.1 hPa Calm   1.6 mph /  2.6 km/h 90 % 0.0 in /  0 mm
21:22 11.3 °F /  -11.5 °C 9.7 °F /  -12.4 °C 1010.4 in /  34212.1 hPa SSE 1.6 mph /  2.6 km/h 1.6 mph /  2.6 km/h 90 % 0.0 in /  0 mm
21:32 11.1 °F /  -11.6 °C 9.7 °F /  -12.4 °C 1010.4 in /  34212.1 hPa Calm   1.6 mph /  2.6 km/h 91 % 0.0 in /  0 mm
21:37 11.1 °F /  -11.6 °C 9.8 °F /  -12.3 °C 1010.4 in /  34212.1 hPa Calm   1.6 mph /  2.6 km/h 92 % 0.0 in /  0 mm
21:42 11.1 °F /  -11.6 °C 9.8 °F /  -12.3 °C 1010.4 in /  34212.1 hPa Calm     92 % 0.0 in /  0 mm
21:47 11.2 °F /  -11.6 °C 10.1 °F /  -12.2 °C 1010.4 in /  34212.1 hPa Calm   1.6 mph /  2.6 km/h 93 % 0.0 in /  0 mm
21:52 11.2 °F /  -11.6 °C 9.9 °F /  -12.3 °C 1010.0 in /  34198.6 hPa Calm   1.6 mph /  2.6 km/h 92 % 0.0 in /  0 mm
21:57 11.2 °F /  -11.6 °C 9.9 °F /  -12.3 °C 1010.0 in /  34198.6 hPa Calm   1.6 mph /  2.6 km/h 92 % 0.0 in /  0 mm
22:02 11.2 °F /  -11.6 °C 9.9 °F /  -12.3 °C 1010.0 in /  34198.6 hPa Calm   1.6 mph /  2.6 km/h 92 % 0.0 in /  0 mm
22:07 11.2 °F /  -11.6 °C 9.9 °F /  -12.3 °C 1010.0 in /  34198.6 hPa WNW 1.6 mph /  2.6 km/h 1.6 mph /  2.6 km/h 92 % 0.0 in /  0 mm
22:12 11.3 °F /  -11.5 °C 10.2 °F /  -12.1 °C 1010.0 in /  34198.6 hPa WNW 1.6 mph /  2.6 km/h 3.2 mph /  5.1 km/h 93 % 0.0 in /  0 mm
22:17 11.4 °F /  -11.4 °C 10.1 °F /  -12.2 °C 1010.0 in /  34198.6 hPa Calm   3.2 mph /  5.1 km/h 92 % 0.0 in /  0 mm
22:22 11.4 °F /  -11.4 °C 10.1 °F /  -12.2 °C 1010.0 in /  34198.6 hPa Calm   1.6 mph /  2.6 km/h 92 % 0.0 in /  0 mm
22:27 11.4 °F /  -11.4 °C 10.1 °F /  -12.2 °C 1010.0 in /  34198.6 hPa Calm   1.6 mph /  2.6 km/h 92 % 0.0 in /  0 mm
22:32 11.3 °F /  -11.5 °C 10.0 °F /  -12.2 °C 1010.0 in /  34198.6 hPa Calm   1.6 mph /  2.6 km/h 92 % 0.0 in /  0 mm
22:37 11.2 °F /  -11.6 °C 9.9 °F /  -12.3 °C 1010.0 in /  34198.6 hPa Calm   1.6 mph /  2.6 km/h 92 % 0.0 in /  0 mm
22:42 11.1 °F /  -11.6 °C 9.8 °F /  -12.3 °C 1010.0 in /  34198.6 hPa SE 1.6 mph /  2.6 km/h   92 % 0.0 in /  0 mm
22:47 10.7 °F /  -11.8 °C 9.3 °F /  -12.6 °C 1010.0 in /  34198.6 hPa Calm   3.2 mph /  5.1 km/h 91 % 0.0 in /  0 mm
22:52 10.6 °F /  -11.9 °C 9.2 °F /  -12.7 °C 1010.0 in /  34198.6 hPa Calm   3.2 mph /  5.1 km/h 91 % 0.0 in /  0 mm
22:57 10.5 °F /  -11.9 °C 9.3 °F /  -12.6 °C 1010.0 in /  34198.6 hPa Calm   3.2 mph /  5.1 km/h 92 % 0.0 in /  0 mm
23:02 10.5 °F /  -11.9 °C 9.3 °F /  -12.6 °C 1009.7 in /  34188.4 hPa Calm     92 % 0.0 in /  0 mm
23:07 10.6 °F /  -11.9 °C 9.4 °F /  -12.6 °C 1009.7 in /  34188.4 hPa Calm     92 % 0.0 in /  0 mm
23:12 10.5 °F /  -11.9 °C 9.3 °F /  -12.6 °C 1010.0 in /  34198.6 hPa Calm     92 % 0.0 in /  0 mm
23:17 10.5 °F /  -11.9 °C 9.4 °F /  -12.6 °C 1010.0 in /  34198.6 hPa Calm     93 % 0.0 in /  0 mm
23:22 10.5 °F /  -11.9 °C 9.4 °F /  -12.6 °C 1010.0 in /  34198.6 hPa Calm     93 % 0.0 in /  0 mm
23:27 10.4 °F /  -12 °C 9.3 °F /  -12.6 °C 1009.7 in /  34188.4 hPa Calm     93 % 0.0 in /  0 mm
23:32 10.5 °F /  -11.9 °C 9.4 °F /  -12.6 °C 1010.0 in /  34198.6 hPa Calm     93 % 0.0 in /  0 mm
23:37 10.4 °F /  -12 °C 9.3 °F /  -12.6 °C 1010.0 in /  34198.6 hPa Calm     93 % 0.0 in /  0 mm
23:42 10.4 °F /  -12 °C 9.3 °F /  -12.6 °C 1010.0 in /  34198.6 hPa Calm     93 % 0.3 in /  7.62 mm
23:47 10.6 °F /  -11.9 °C 9.7 °F /  -12.4 °C 1010.0 in /  34198.6 hPa SSW 1.6 mph /  2.6 km/h 1.6 mph /  2.6 km/h 94 % 0.8 in /  20.32 mm
23:52 10.7 °F /  -11.8 °C 9.8 °F /  -12.3 °C 1010.0 in /  34198.6 hPa Calm   1.6 mph /  2.6 km/h 94 % 0.8 in /  20.32 mm
23:57 10.8 °F /  -11.8 °C 9.9 °F /  -12.3 °C 1010.0 in /  34198.6 hPa Calm   1.6 mph /  2.6 km/h 94 % 0.8 in /  20.32 mm
Meteo18
Compliments of Weather Underground - 4 mb

Script developed by  Jim McMurry - jmcmurry@mwt.net Adapted for the template by  Wim van der Kuil - Leuven-Template.eu

You find our weather info also at:

European Weather Network

Weather Underground

Equipment we use:

Weather-station
Davis Vue

Weather-program
Meteobridge

Weather-server
Raspberry PI 2 B+

Provider
1 and 1

Davis Vue

Meteobridge

Raspberry PI 2 B+

1 and 1